This is the latest recevied weather packets stored in our database for station/object KC5TIL. If no packets are shown the sender has not sent any weather packets the latest 10 day(s).
| Time | Temp. | Humidity | Pressure | Rain* | Wind** | Luminosity | Snow |
|---|---|---|---|---|---|---|---|
| 1777730367 | 16.11° C | 74% | 1023.5 hPa | 0 mm | - | 278 W/m² | - |
| 1777730064 | 16.11° C | 74% | 1023.4 hPa | 0 mm | - | 263 W/m² | - |
| 1777729760 | 15.56° C | 74% | 1023.5 hPa | 0 mm | - | 229 W/m² | - |
| 1777729457 | 15.56° C | 76% | 1023.4 hPa | 0 mm | - | 215 W/m² | - |
| 1777729154 | 15.56° C | 76% | 1023.3 hPa | 0 mm | - | 198 W/m² | - |
| 1777728851 | 15.56° C | 76% | 1023.4 hPa | 0 mm | - | 179 W/m² | - |
| 1777728548 | 15° C | 76% | 1023.3 hPa | 0 mm | - | 167 W/m² | - |
| 1777728245 | 16.11° C | 74% | 1023.4 hPa | 0 mm | - | 152 W/m² | - |
| 1777727942 | 15.56° C | 75% | 1023.4 hPa | 0 mm | - | 139 W/m² | - |
| 1777727639 | 15.56° C | 77% | 1023.4 hPa | 0 mm | - | 130 W/m² | - |
| 1777727336 | 15° C | 78% | 1023.4 hPa | 0 mm | - | 111 W/m² | - |
| 1777727033 | 14.44° C | 79% | 1023.4 hPa | 0 mm | - | 99 W/m² | - |
| 1777726730 | 13.89° C | 81% | 1023.3 hPa | 0 mm | - | 72 W/m² | - |
| 1777726427 | 13.89° C | 81% | 1023.2 hPa | 0 mm | - | 55 W/m² | - |
| 1777726124 | 13.33° C | 83% | 1023.3 hPa | 0 mm | - | 50 W/m² | - |
| 1777725821 | 12.78° C | 83% | 1023.1 hPa | 0 mm | - | 45 W/m² | - |
| 1777725519 | 12.78° C | 83% | 1022.9 hPa | 0 mm | - | 41 W/m² | - |
| 1777725216 | 12.78° C | 85% | 1023 hPa | 0 mm | - | 39 W/m² | - |
| 1777724913 | 11.67° C | 89% | 1023 hPa | 0 mm | - | 33 W/m² | - |
| 1777724608 | 11.11° C | 91% | 1023.2 hPa | 0 mm | - | 29 W/m² | - |
| 1777724307 | 10.56° C | 92% | 1023 hPa | 0 mm | - | 26 W/m² | - |
| 1777724004 | 10° C | 93% | 1022.8 hPa | 0 mm | - | 22 W/m² | - |
| 1777723701 | 9.44° C | 94% | 1022.8 hPa | 0 mm | - | 16 W/m² | - |
| 1777723397 | 9.44° C | 93% | 1022.7 hPa | 0 mm | - | 12 W/m² | - |
| 1777723095 | 9.44° C | 93% | 1022.5 hPa | 0 mm | - | 10 W/m² | - |
* Rain latest hour (hover to see other rain measurements)
** Current wind speed in m/s (hover to see current wind gust speed)